Airport Name : Presidente Joao Suassuna

Other Name : Campina Grande

ICAO : SBKG

IATA : CPV

FAA :

Latitude : -7.269917

Longitude : -35.896364

Country : Brazil

Local Date and Time : 1/22/2018 1:08:00 PM

 

TAF (Terminal Aerodrome Forecast)

 

METAR (METeorological Aerodrome Report)

SBKG 221400Z 11012KT 9999 BKN033 27/18 Q1014

SBKG 221300Z 11015KT 9999 BKN026 27/18 Q1014